sensor_id;sensor_type;location;lat;lon;timestamp;P1;durP1;ratioP1;P2;durP2;ratioP2
13959;SDS011;7052;51.050;3.716;2023-08-07T00:01:53;6.00;;;3.13;;
13959;SDS011;7052;51.050;3.716;2023-08-07T00:04:23;6.07;;;3.03;;
13959;SDS011;7052;51.050;3.716;2023-08-07T00:06:51;5.53;;;2.90;;
13959;SDS011;7052;51.050;3.716;2023-08-07T00:09:20;5.27;;;2.93;;
13959;SDS011;7052;51.050;3.716;2023-08-07T00:11:49;8.00;;;2.80;;
13959;SDS011;7052;51.050;3.716;2023-08-07T00:14:17;5.67;;;2.80;;
13959;SDS011;7052;51.050;3.716;2023-08-07T00:16:46;4.97;;;2.80;;
13959;SDS011;7052;51.050;3.716;2023-08-07T00:19:13;5.50;;;2.50;;
13959;SDS011;7052;51.050;3.716;2023-08-07T00:21:42;7.70;;;3.20;;
13959;SDS011;7052;51.050;3.716;2023-08-07T00:24:10;6.70;;;2.70;;
13959;SDS011;7052;51.050;3.716;2023-08-07T00:26:37;8.73;;;2.80;;
13959;SDS011;7052;51.050;3.716;2023-08-07T00:29:04;4.03;;;2.73;;
13959;SDS011;7052;51.050;3.716;2023-08-07T00:31:33;6.63;;;2.90;;
13959;SDS011;7052;51.050;3.716;2023-08-07T00:34:01;6.00;;;3.00;;
13959;SDS011;7052;51.050;3.716;2023-08-07T00:36:29;7.20;;;2.93;;
13959;SDS011;7052;51.050;3.716;2023-08-07T00:38:59;7.40;;;3.27;;
13959;SDS011;7052;51.050;3.716;2023-08-07T00:41:28;8.13;;;3.13;;
13959;SDS011;7052;51.050;3.716;2023-08-07T00:43:55;8.23;;;3.13;;
13959;SDS011;7052;51.050;3.716;2023-08-07T00:46:22;7.33;;;3.07;;
13959;SDS011;7052;51.050;3.716;2023-08-07T00:48:49;5.77;;;3.13;;
13959;SDS011;7052;51.050;3.716;2023-08-07T00:51:20;4.93;;;2.90;;
13959;SDS011;7052;51.050;3.716;2023-08-07T00:53:49;11.53;;;3.40;;
13959;SDS011;7052;51.050;3.716;2023-08-07T00:56:17;7.43;;;3.00;;
13959;SDS011;7052;51.050;3.716;2023-08-07T00:58:45;6.13;;;2.83;;
13959;SDS011;7052;51.050;3.716;2023-08-07T01:01:12;5.47;;;3.13;;
13959;SDS011;7052;51.050;3.716;2023-08-07T01:03:39;4.83;;;2.63;;
13959;SDS011;7052;51.050;3.716;2023-08-07T01:06:07;6.90;;;2.70;;
13959;SDS011;7052;51.050;3.716;2023-08-07T01:08:35;5.53;;;2.67;;
13959;SDS011;7052;51.050;3.716;2023-08-07T01:11:08;3.57;;;2.60;;
13959;SDS011;7052;51.050;3.716;2023-08-07T01:13:45;5.10;;;2.73;;
13959;SDS011;7052;51.050;3.716;2023-08-07T01:16:21;8.37;;;2.97;;
13959;SDS011;7052;51.050;3.716;2023-08-07T01:18:53;6.40;;;2.70;;
13959;SDS011;7052;51.050;3.716;2023-08-07T01:21:23;6.13;;;2.83;;
13959;SDS011;7052;51.050;3.716;2023-08-07T01:23:51;5.30;;;3.13;;
13959;SDS011;7052;51.050;3.716;2023-08-07T01:26:19;3.67;;;2.60;;
13959;SDS011;7052;51.050;3.716;2023-08-07T01:28:49;7.90;;;2.97;;
13959;SDS011;7052;51.050;3.716;2023-08-07T01:31:27;6.23;;;2.70;;
13959;SDS011;7052;51.050;3.716;2023-08-07T01:34:02;6.03;;;3.03;;
13959;SDS011;7052;51.050;3.716;2023-08-07T01:36:31;3.90;;;2.70;;
13959;SDS011;7052;51.050;3.716;2023-08-07T01:39:00;6.27;;;2.70;;
13959;SDS011;7052;51.050;3.716;2023-08-07T01:41:33;5.30;;;2.60;;
13959;SDS011;7052;51.050;3.716;2023-08-07T01:44:02;6.40;;;2.60;;
13959;SDS011;7052;51.050;3.716;2023-08-07T01:46:30;4.07;;;2.87;;
13959;SDS011;7052;51.050;3.716;2023-08-07T01:48:58;4.67;;;2.43;;
13959;SDS011;7052;51.050;3.716;2023-08-07T01:51:25;6.60;;;2.90;;
13959;SDS011;7052;51.050;3.716;2023-08-07T01:53:52;4.63;;;2.60;;
13959;SDS011;7052;51.050;3.716;2023-08-07T01:56:20;4.90;;;2.73;;
13959;SDS011;7052;51.050;3.716;2023-08-07T01:58:49;5.37;;;2.87;;
13959;SDS011;7052;51.050;3.716;2023-08-07T02:01:16;4.87;;;2.53;;
13959;SDS011;7052;51.050;3.716;2023-08-07T02:03:45;6.87;;;3.23;;
13959;SDS011;7052;51.050;3.716;2023-08-07T02:06:13;4.80;;;2.73;;
13959;SDS011;7052;51.050;3.716;2023-08-07T02:08:40;5.03;;;2.73;;
13959;SDS011;7052;51.050;3.716;2023-08-07T02:11:07;4.50;;;2.90;;
13959;SDS011;7052;51.050;3.716;2023-08-07T02:13:36;4.00;;;2.70;;
13959;SDS011;7052;51.050;3.716;2023-08-07T02:16:03;4.70;;;2.70;;
13959;SDS011;7052;51.050;3.716;2023-08-07T02:18:30;4.97;;;2.67;;
13959;SDS011;7052;51.050;3.716;2023-08-07T02:20:58;5.93;;;3.03;;
13959;SDS011;7052;51.050;3.716;2023-08-07T02:23:25;6.63;;;2.80;;
13959;SDS011;7052;51.050;3.716;2023-08-07T02:25:54;7.63;;;3.20;;
13959;SDS011;7052;51.050;3.716;2023-08-07T02:28:21;6.77;;;2.93;;
13959;SDS011;7052;51.050;3.716;2023-08-07T02:30:50;6.80;;;2.87;;
13959;SDS011;7052;51.050;3.716;2023-08-07T02:33:19;5.77;;;2.73;;
13959;SDS011;7052;51.050;3.716;2023-08-07T02:35:46;4.97;;;2.80;;
13959;SDS011;7052;51.050;3.716;2023-08-07T02:38:16;6.70;;;3.27;;
13959;SDS011;7052;51.050;3.716;2023-08-07T02:40:43;3.30;;;2.57;;
13959;SDS011;7052;51.050;3.716;2023-08-07T02:43:11;4.90;;;3.17;;
13959;SDS011;7052;51.050;3.716;2023-08-07T02:45:39;9.17;;;3.23;;
13959;SDS011;7052;51.050;3.716;2023-08-07T02:48:08;11.17;;;3.53;;
13959;SDS011;7052;51.050;3.716;2023-08-07T02:50:36;3.90;;;2.93;;
13959;SDS011;7052;51.050;3.716;2023-08-07T02:53:05;5.53;;;2.90;;
13959;SDS011;7052;51.050;3.716;2023-08-07T02:55:32;8.00;;;3.50;;
13959;SDS011;7052;51.050;3.716;2023-08-07T02:58:00;5.73;;;3.03;;
13959;SDS011;7052;51.050;3.716;2023-08-07T03:00:27;7.63;;;3.30;;
13959;SDS011;7052;51.050;3.716;2023-08-07T03:02:54;9.17;;;3.40;;
13959;SDS011;7052;51.050;3.716;2023-08-07T03:05:26;5.90;;;3.00;;
13959;SDS011;7052;51.050;3.716;2023-08-07T03:07:57;9.60;;;3.30;;
13959;SDS011;7052;51.050;3.716;2023-08-07T03:10:24;8.07;;;3.50;;
13959;SDS011;7052;51.050;3.716;2023-08-07T03:12:52;7.30;;;3.30;;
13959;SDS011;7052;51.050;3.716;2023-08-07T03:15:19;4.13;;;2.60;;
13959;SDS011;7052;51.050;3.716;2023-08-07T03:17:48;7.33;;;3.20;;
13959;SDS011;7052;51.050;3.716;2023-08-07T03:20:15;5.50;;;3.20;;
13959;SDS011;7052;51.050;3.716;2023-08-07T03:22:44;9.30;;;3.70;;
13959;SDS011;7052;51.050;3.716;2023-08-07T03:25:13;5.07;;;3.13;;
13959;SDS011;7052;51.050;3.716;2023-08-07T03:27:40;7.33;;;3.10;;
13959;SDS011;7052;51.050;3.716;2023-08-07T03:30:10;5.17;;;2.83;;
13959;SDS011;7052;51.050;3.716;2023-08-07T03:32:38;9.57;;;3.50;;
13959;SDS011;7052;51.050;3.716;2023-08-07T03:35:07;5.40;;;2.97;;
13959;SDS011;7052;51.050;3.716;2023-08-07T03:37:35;5.13;;;3.13;;
13959;SDS011;7052;51.050;3.716;2023-08-07T03:40:05;5.23;;;3.17;;
13959;SDS011;7052;51.050;3.716;2023-08-07T03:42:33;4.33;;;3.10;;
13959;SDS011;7052;51.050;3.716;2023-08-07T03:45:00;6.90;;;3.10;;
13959;SDS011;7052;51.050;3.716;2023-08-07T03:47:29;7.27;;;3.20;;
13959;SDS011;7052;51.050;3.716;2023-08-07T03:49:56;7.83;;;3.50;;
13959;SDS011;7052;51.050;3.716;2023-08-07T03:52:23;5.87;;;3.27;;
13959;SDS011;7052;51.050;3.716;2023-08-07T03:54:52;8.57;;;3.00;;
13959;SDS011;7052;51.050;3.716;2023-08-07T03:57:21;6.60;;;3.07;;
13959;SDS011;7052;51.050;3.716;2023-08-07T03:59:48;8.63;;;3.60;;
13959;SDS011;7052;51.050;3.716;2023-08-07T04:02:18;6.67;;;3.13;;
13959;SDS011;7052;51.050;3.716;2023-08-07T04:04:44;6.97;;;3.33;;
13959;SDS011;7052;51.050;3.716;2023-08-07T04:07:11;7.23;;;3.40;;
13959;SDS011;7052;51.050;3.716;2023-08-07T04:09:38;6.90;;;3.50;;
13959;SDS011;7052;51.050;3.716;2023-08-07T04:12:07;5.40;;;3.47;;
13959;SDS011;7052;51.050;3.716;2023-08-07T04:14:41;8.77;;;3.67;;
13959;SDS011;7052;51.050;3.716;2023-08-07T04:17:08;7.03;;;3.13;;
13959;SDS011;7052;51.050;3.716;2023-08-07T04:19:36;4.13;;;2.80;;
13959;SDS011;7052;51.050;3.716;2023-08-07T04:22:05;7.00;;;3.57;;
13959;SDS011;7052;51.050;3.716;2023-08-07T04:24:32;7.07;;;3.50;;
13959;SDS011;7052;51.050;3.716;2023-08-07T04:27:00;8.37;;;3.60;;
13959;SDS011;7052;51.050;3.716;2023-08-07T04:29:28;6.77;;;4.00;;
13959;SDS011;7052;51.050;3.716;2023-08-07T04:31:56;6.30;;;3.07;;
13959;SDS011;7052;51.050;3.716;2023-08-07T04:34:23;9.27;;;3.70;;
13959;SDS011;7052;51.050;3.716;2023-08-07T04:36:51;5.67;;;3.20;;
13959;SDS011;7052;51.050;3.716;2023-08-07T04:39:21;7.33;;;3.23;;
13959;SDS011;7052;51.050;3.716;2023-08-07T04:41:50;6.87;;;3.30;;
13959;SDS011;7052;51.050;3.716;2023-08-07T04:44:19;6.50;;;3.30;;
13959;SDS011;7052;51.050;3.716;2023-08-07T04:46:48;5.90;;;3.40;;
13959;SDS011;7052;51.050;3.716;2023-08-07T04:49:17;8.63;;;3.70;;
13959;SDS011;7052;51.050;3.716;2023-08-07T04:51:45;7.37;;;3.40;;
13959;SDS011;7052;51.050;3.716;2023-08-07T04:54:14;7.90;;;3.70;;
13959;SDS011;7052;51.050;3.716;2023-08-07T04:56:42;9.27;;;4.30;;
13959;SDS011;7052;51.050;3.716;2023-08-07T04:59:10;7.20;;;3.60;;
13959;SDS011;7052;51.050;3.716;2023-08-07T05:01:37;7.30;;;3.60;;
13959;SDS011;7052;51.050;3.716;2023-08-07T05:04:04;9.30;;;3.23;;
13959;SDS011;7052;51.050;3.716;2023-08-07T05:06:34;9.93;;;3.40;;
13959;SDS011;7052;51.050;3.716;2023-08-07T05:09:02;13.33;;;4.00;;
13959;SDS011;7052;51.050;3.716;2023-08-07T05:11:29;7.70;;;3.50;;
13959;SDS011;7052;51.050;3.716;2023-08-07T05:13:56;4.97;;;4.00;;
13959;SDS011;7052;51.050;3.716;2023-08-07T05:16:24;11.00;;;4.10;;
13959;SDS011;7052;51.050;3.716;2023-08-07T05:18:53;10.20;;;4.07;;
13959;SDS011;7052;51.050;3.716;2023-08-07T05:21:22;9.90;;;4.30;;
13959;SDS011;7052;51.050;3.716;2023-08-07T05:23:53;8.70;;;4.00;;
13959;SDS011;7052;51.050;3.716;2023-08-07T05:26:20;8.40;;;3.43;;
13959;SDS011;7052;51.050;3.716;2023-08-07T05:28:49;7.73;;;4.07;;
13959;SDS011;7052;51.050;3.716;2023-08-07T05:31:16;8.73;;;3.90;;
13959;SDS011;7052;51.050;3.716;2023-08-07T05:33:43;8.90;;;4.47;;
13959;SDS011;7052;51.050;3.716;2023-08-07T05:36:10;5.97;;;3.83;;
13959;SDS011;7052;51.050;3.716;2023-08-07T05:38:42;5.80;;;3.63;;
13959;SDS011;7052;51.050;3.716;2023-08-07T05:41:12;9.00;;;4.10;;
13959;SDS011;7052;51.050;3.716;2023-08-07T05:43:40;7.40;;;4.23;;
13959;SDS011;7052;51.050;3.716;2023-08-07T05:46:07;8.33;;;4.20;;
13959;SDS011;7052;51.050;3.716;2023-08-07T05:48:34;8.93;;;4.17;;
13959;SDS011;7052;51.050;3.716;2023-08-07T05:51:02;15.00;;;4.80;;
13959;SDS011;7052;51.050;3.716;2023-08-07T05:53:29;11.07;;;4.37;;
13959;SDS011;7052;51.050;3.716;2023-08-07T05:55:56;8.57;;;4.33;;
13959;SDS011;7052;51.050;3.716;2023-08-07T05:58:25;6.87;;;4.00;;
13959;SDS011;7052;51.050;3.716;2023-08-07T06:00:53;11.43;;;4.97;;
13959;SDS011;7052;51.050;3.716;2023-08-07T06:03:20;9.40;;;5.13;;
13959;SDS011;7052;51.050;3.716;2023-08-07T06:05:47;8.90;;;4.97;;
13959;SDS011;7052;51.050;3.716;2023-08-07T06:08:15;11.70;;;5.20;;
13959;SDS011;7052;51.050;3.716;2023-08-07T06:10:42;13.50;;;5.27;;
13959;SDS011;7052;51.050;3.716;2023-08-07T06:13:09;7.87;;;4.53;;
13959;SDS011;7052;51.050;3.716;2023-08-07T06:15:38;9.97;;;5.10;;
13959;SDS011;7052;51.050;3.716;2023-08-07T06:18:06;10.30;;;5.00;;
13959;SDS011;7052;51.050;3.716;2023-08-07T06:20:33;10.47;;;4.63;;
13959;SDS011;7052;51.050;3.716;2023-08-07T06:23:01;9.17;;;4.10;;
13959;SDS011;7052;51.050;3.716;2023-08-07T06:25:31;9.17;;;4.40;;
13959;SDS011;7052;51.050;3.716;2023-08-07T06:27:58;6.80;;;3.90;;
13959;SDS011;7052;51.050;3.716;2023-08-07T06:30:28;9.02;;;4.80;;
13959;SDS011;7052;51.050;3.716;2023-08-07T06:32:56;6.55;;;4.13;;
13959;SDS011;7052;51.050;3.716;2023-08-07T06:35:23;6.55;;;3.95;;
13959;SDS011;7052;51.050;3.716;2023-08-07T06:37:49;7.30;;;3.88;;
13959;SDS011;7052;51.050;3.716;2023-08-07T06:40:17;6.28;;;3.95;;
13959;SDS011;7052;51.050;3.716;2023-08-07T06:42:45;6.63;;;3.63;;
13959;SDS011;7052;51.050;3.716;2023-08-07T06:45:12;7.45;;;4.45;;
13959;SDS011;7052;51.050;3.716;2023-08-07T06:47:39;6.63;;;3.60;;
13959;SDS011;7052;51.050;3.716;2023-08-07T06:50:14;8.90;;;4.30;;
13959;SDS011;7052;51.050;3.716;2023-08-07T06:52:41;10.50;;;4.32;;
13959;SDS011;7052;51.050;3.716;2023-08-07T06:55:10;7.30;;;3.55;;
13959;SDS011;7052;51.050;3.716;2023-08-07T06:57:38;7.53;;;4.07;;
13959;SDS011;7052;51.050;3.716;2023-08-07T07:00:06;9.27;;;3.65;;
13959;SDS011;7052;51.050;3.716;2023-08-07T07:02:35;5.25;;;3.50;;
13959;SDS011;7052;51.050;3.716;2023-08-07T07:05:03;10.82;;;4.55;;
13959;SDS011;7052;51.050;3.716;2023-08-07T07:07:34;6.22;;;4.03;;
13959;SDS011;7052;51.050;3.716;2023-08-07T07:10:05;9.18;;;3.80;;
13959;SDS011;7052;51.050;3.716;2023-08-07T07:12:33;7.93;;;3.53;;
13959;SDS011;7052;51.050;3.716;2023-08-07T07:15:00;5.22;;;3.05;;
13959;SDS011;7052;51.050;3.716;2023-08-07T07:17:28;6.07;;;3.13;;
13959;SDS011;7052;51.050;3.716;2023-08-07T07:19:55;8.38;;;3.30;;
13959;SDS011;7052;51.050;3.716;2023-08-07T07:22:22;6.38;;;3.42;;
13959;SDS011;7052;51.050;3.716;2023-08-07T07:24:51;5.25;;;3.08;;
13959;SDS011;7052;51.050;3.716;2023-08-07T07:27:19;5.72;;;3.33;;
13959;SDS011;7052;51.050;3.716;2023-08-07T07:29:47;4.68;;;3.05;;
13959;SDS011;7052;51.050;3.716;2023-08-07T07:32:14;4.43;;;2.97;;
13959;SDS011;7052;51.050;3.716;2023-08-07T07:34:41;5.60;;;2.90;;
13959;SDS011;7052;51.050;3.716;2023-08-07T07:37:08;4.40;;;2.75;;
13959;SDS011;7052;51.050;3.716;2023-08-07T07:39:36;5.00;;;2.72;;
13959;SDS011;7052;51.050;3.716;2023-08-07T07:42:05;8.05;;;3.30;;
13959;SDS011;7052;51.050;3.716;2023-08-07T07:44:33;4.45;;;3.10;;
13959;SDS011;7052;51.050;3.716;2023-08-07T07:47:04;6.15;;;3.03;;
13959;SDS011;7052;51.050;3.716;2023-08-07T07:49:32;5.82;;;3.47;;
13959;SDS011;7052;51.050;3.716;2023-08-07T07:51:59;6.40;;;3.20;;
13959;SDS011;7052;51.050;3.716;2023-08-07T07:54:27;7.25;;;3.47;;
13959;SDS011;7052;51.050;3.716;2023-08-07T07:56:55;4.88;;;2.88;;
13959;SDS011;7052;51.050;3.716;2023-08-07T07:59:23;4.75;;;2.85;;
13959;SDS011;7052;51.050;3.716;2023-08-07T08:01:50;4.30;;;2.53;;
13959;SDS011;7052;51.050;3.716;2023-08-07T08:04:18;4.78;;;2.22;;
13959;SDS011;7052;51.050;3.716;2023-08-07T08:06:47;8.43;;;3.10;;
13959;SDS011;7052;51.050;3.716;2023-08-07T08:09:14;8.20;;;2.75;;
13959;SDS011;7052;51.050;3.716;2023-08-07T08:11:43;3.65;;;2.83;;
13959;SDS011;7052;51.050;3.716;2023-08-07T08:14:12;5.35;;;2.58;;
13959;SDS011;7052;51.050;3.716;2023-08-07T08:16:43;2.75;;;2.00;;
13959;SDS011;7052;51.050;3.716;2023-08-07T08:19:11;4.35;;;2.20;;
13959;SDS011;7052;51.050;3.716;2023-08-07T08:21:38;4.38;;;2.63;;
13959;SDS011;7052;51.050;3.716;2023-08-07T08:24:06;2.35;;;1.98;;
13959;SDS011;7052;51.050;3.716;2023-08-07T08:26:35;2.75;;;2.22;;
13959;SDS011;7052;51.050;3.716;2023-08-07T08:29:02;3.33;;;2.13;;
13959;SDS011;7052;51.050;3.716;2023-08-07T08:31:34;3.88;;;2.38;;
13959;SDS011;7052;51.050;3.716;2023-08-07T08:34:05;3.33;;;2.20;;
13959;SDS011;7052;51.050;3.716;2023-08-07T08:36:33;6.00;;;2.28;;
13959;SDS011;7052;51.050;3.716;2023-08-07T08:39:01;3.35;;;2.70;;
13959;SDS011;7052;51.050;3.716;2023-08-07T08:41:28;3.85;;;2.53;;
13959;SDS011;7052;51.050;3.716;2023-08-07T08:43:56;2.97;;;1.95;;
13959;SDS011;7052;51.050;3.716;2023-08-07T08:46:26;3.90;;;2.20;;
13959;SDS011;7052;51.050;3.716;2023-08-07T08:48:55;3.13;;;2.22;;
13959;SDS011;7052;51.050;3.716;2023-08-07T08:51:28;4.57;;;2.38;;
13959;SDS011;7052;51.050;3.716;2023-08-07T08:53:56;3.13;;;2.22;;
13959;SDS011;7052;51.050;3.716;2023-08-07T08:56:23;4.68;;;2.20;;
13959;SDS011;7052;51.050;3.716;2023-08-07T08:58:50;3.20;;;2.28;;
13959;SDS011;7052;51.050;3.716;2023-08-07T09:01:17;2.88;;;1.95;;
13959;SDS011;7052;51.050;3.716;2023-08-07T09:03:45;3.00;;;2.30;;
13959;SDS011;7052;51.050;3.716;2023-08-07T09:06:13;3.00;;;2.15;;
13959;SDS011;7052;51.050;3.716;2023-08-07T09:08:46;2.28;;;2.00;;
13959;SDS011;7052;51.050;3.716;2023-08-07T09:11:16;3.35;;;2.30;;
13959;SDS011;7052;51.050;3.716;2023-08-07T09:13:44;2.85;;;2.20;;
13959;SDS011;7052;51.050;3.716;2023-08-07T09:16:16;3.20;;;2.00;;
13959;SDS011;7052;51.050;3.716;2023-08-07T09:18:44;2.92;;;2.15;;
13959;SDS011;7052;51.050;3.716;2023-08-07T09:21:15;2.50;;;1.98;;
13959;SDS011;7052;51.050;3.716;2023-08-07T09:23:42;3.13;;;2.30;;
13959;SDS011;7052;51.050;3.716;2023-08-07T09:26:11;3.75;;;2.47;;
13959;SDS011;7052;51.050;3.716;2023-08-07T09:28:38;2.30;;;2.10;;
13959;SDS011;7052;51.050;3.716;2023-08-07T09:31:06;5.05;;;2.58;;
13959;SDS011;7052;51.050;3.716;2023-08-07T09:33:34;3.97;;;2.35;;
13959;SDS011;7052;51.050;3.716;2023-08-07T09:36:02;4.05;;;2.33;;
13959;SDS011;7052;51.050;3.716;2023-08-07T09:38:30;4.68;;;2.28;;
13959;SDS011;7052;51.050;3.716;2023-08-07T09:40:58;6.63;;;2.47;;
13959;SDS011;7052;51.050;3.716;2023-08-07T09:43:29;3.50;;;2.40;;
13959;SDS011;7052;51.050;3.716;2023-08-07T09:46:04;4.45;;;2.55;;
13959;SDS011;7052;51.050;3.716;2023-08-07T09:48:31;3.38;;;2.25;;
13959;SDS011;7052;51.050;3.716;2023-08-07T09:51:06;3.60;;;2.10;;
13959;SDS011;7052;51.050;3.716;2023-08-07T09:53:35;2.58;;;2.00;;
13959;SDS011;7052;51.050;3.716;2023-08-07T09:56:03;2.85;;;2.10;;
13959;SDS011;7052;51.050;3.716;2023-08-07T09:58:34;3.75;;;2.33;;
13959;SDS011;7052;51.050;3.716;2023-08-07T10:01:02;2.95;;;2.30;;
13959;SDS011;7052;51.050;3.716;2023-08-07T10:03:32;3.30;;;2.20;;
13959;SDS011;7052;51.050;3.716;2023-08-07T10:06:00;2.92;;;2.10;;
13959;SDS011;7052;51.050;3.716;2023-08-07T10:08:29;3.40;;;2.50;;
13959;SDS011;7052;51.050;3.716;2023-08-07T10:11:00;4.30;;;2.00;;
13959;SDS011;7052;51.050;3.716;2023-08-07T10:13:29;2.70;;;2.30;;
13959;SDS011;7052;51.050;3.716;2023-08-07T10:15:59;3.75;;;2.25;;
13959;SDS011;7052;51.050;3.716;2023-08-07T10:18:27;2.80;;;2.30;;
13959;SDS011;7052;51.050;3.716;2023-08-07T10:20:56;2.80;;;2.20;;
13959;SDS011;7052;51.050;3.716;2023-08-07T10:23:26;4.85;;;2.30;;
13959;SDS011;7052;51.050;3.716;2023-08-07T10:25:55;3.25;;;2.40;;
13959;SDS011;7052;51.050;3.716;2023-08-07T10:28:23;4.18;;;2.35;;
13959;SDS011;7052;51.050;3.716;2023-08-07T10:30:52;2.60;;;2.20;;
13959;SDS011;7052;51.050;3.716;2023-08-07T10:33:21;3.65;;;2.40;;
13959;SDS011;7052;51.050;3.716;2023-08-07T10:35:51;2.40;;;2.20;;
13959;SDS011;7052;51.050;3.716;2023-08-07T10:38:25;3.25;;;2.38;;
13959;SDS011;7052;51.050;3.716;2023-08-07T10:40:59;4.70;;;2.20;;
13959;SDS011;7052;51.050;3.716;2023-08-07T10:43:29;2.75;;;2.40;;
13959;SDS011;7052;51.050;3.716;2023-08-07T10:46:03;2.08;;;1.88;;
13959;SDS011;7052;51.050;3.716;2023-08-07T10:48:38;2.85;;;2.03;;
13959;SDS011;7052;51.050;3.716;2023-08-07T10:51:11;3.45;;;2.47;;
13959;SDS011;7052;51.050;3.716;2023-08-07T10:53:40;4.60;;;2.53;;
13959;SDS011;7052;51.050;3.716;2023-08-07T10:56:09;3.30;;;2.15;;
13959;SDS011;7052;51.050;3.716;2023-08-07T10:58:37;4.28;;;2.33;;
13959;SDS011;7052;51.050;3.716;2023-08-07T11:01:15;3.67;;;2.30;;
13959;SDS011;7052;51.050;3.716;2023-08-07T11:03:49;3.28;;;2.33;;
13959;SDS011;7052;51.050;3.716;2023-08-07T11:06:22;3.58;;;2.58;;
13959;SDS011;7052;51.050;3.716;2023-08-07T11:08:53;3.25;;;2.10;;
13959;SDS011;7052;51.050;3.716;2023-08-07T11:11:20;2.15;;;1.95;;
13959;SDS011;7052;51.050;3.716;2023-08-07T11:13:48;3.22;;;2.13;;
13959;SDS011;7052;51.050;3.716;2023-08-07T11:16:16;2.72;;;2.10;;
13959;SDS011;7052;51.050;3.716;2023-08-07T11:18:46;5.70;;;2.60;;
13959;SDS011;7052;51.050;3.716;2023-08-07T11:21:16;4.65;;;2.40;;
13959;SDS011;7052;51.050;3.716;2023-08-07T11:23:45;5.13;;;2.50;;
13959;SDS011;7052;51.050;3.716;2023-08-07T11:26:12;3.75;;;2.55;;
13959;SDS011;7052;51.050;3.716;2023-08-07T11:28:40;3.13;;;2.35;;
13959;SDS011;7052;51.050;3.716;2023-08-07T11:31:08;3.58;;;2.20;;
13959;SDS011;7052;51.050;3.716;2023-08-07T11:33:36;4.57;;;3.30;;
13959;SDS011;7052;51.050;3.716;2023-08-07T11:36:05;3.70;;;2.10;;
13959;SDS011;7052;51.050;3.716;2023-08-07T11:38:37;3.22;;;1.98;;
13959;SDS011;7052;51.050;3.716;2023-08-07T11:41:06;2.30;;;1.83;;
13959;SDS011;7052;51.050;3.716;2023-08-07T11:43:35;3.42;;;2.42;;
13959;SDS011;7052;51.050;3.716;2023-08-07T11:46:05;1.98;;;1.77;;
13959;SDS011;7052;51.050;3.716;2023-08-07T11:48:33;2.67;;;1.85;;
13959;SDS011;7052;51.050;3.716;2023-08-07T11:51:02;2.58;;;1.65;;
13959;SDS011;7052;51.050;3.716;2023-08-07T11:53:32;2.08;;;1.75;;
13959;SDS011;7052;51.050;3.716;2023-08-07T11:56:00;2.75;;;1.88;;
13959;SDS011;7052;51.050;3.716;2023-08-07T11:58:33;1.77;;;1.60;;
13959;SDS011;7052;51.050;3.716;2023-08-07T12:01:05;2.15;;;1.60;;
13959;SDS011;7052;51.050;3.716;2023-08-07T12:03:35;2.88;;;1.50;;
13959;SDS011;7052;51.050;3.716;2023-08-07T12:06:05;2.55;;;1.90;;
13959;SDS011;7052;51.050;3.716;2023-08-07T12:08:35;1.50;;;1.40;;
13959;SDS011;7052;51.050;3.716;2023-08-07T12:11:04;3.13;;;1.80;;
13959;SDS011;7052;51.050;3.716;2023-08-07T12:13:36;1.75;;;1.50;;
13959;SDS011;7052;51.050;3.716;2023-08-07T12:16:05;2.22;;;1.73;;
13959;SDS011;7052;51.050;3.716;2023-08-07T12:18:33;2.25;;;1.67;;
13959;SDS011;7052;51.050;3.716;2023-08-07T12:21:03;3.08;;;1.60;;
13959;SDS011;7052;51.050;3.716;2023-08-07T12:23:35;2.72;;;1.67;;
13959;SDS011;7052;51.050;3.716;2023-08-07T12:26:03;4.10;;;1.70;;
13959;SDS011;7052;51.050;3.716;2023-08-07T12:28:32;2.70;;;1.58;;
13959;SDS011;7052;51.050;3.716;2023-08-07T12:31:00;2.05;;;1.60;;
13959;SDS011;7052;51.050;3.716;2023-08-07T12:33:28;2.20;;;1.58;;
13959;SDS011;7052;51.050;3.716;2023-08-07T12:35:57;3.33;;;1.85;;
13959;SDS011;7052;51.050;3.716;2023-08-07T12:38:26;2.78;;;1.75;;
13959;SDS011;7052;51.050;3.716;2023-08-07T12:40:53;2.65;;;1.65;;
13959;SDS011;7052;51.050;3.716;2023-08-07T12:43:20;3.40;;;1.70;;
13959;SDS011;7052;51.050;3.716;2023-08-07T12:45:48;2.80;;;1.88;;
13959;SDS011;7052;51.050;3.716;2023-08-07T12:48:16;2.92;;;1.60;;
13959;SDS011;7052;51.050;3.716;2023-08-07T12:50:43;1.70;;;1.60;;
13959;SDS011;7052;51.050;3.716;2023-08-07T12:53:11;2.67;;;1.65;;
13959;SDS011;7052;51.050;3.716;2023-08-07T12:55:40;4.28;;;1.70;;
13959;SDS011;7052;51.050;3.716;2023-08-07T12:58:07;3.13;;;1.40;;
13959;SDS011;7052;51.050;3.716;2023-08-07T13:00:34;3.22;;;1.73;;
13959;SDS011;7052;51.050;3.716;2023-08-07T13:03:01;4.75;;;1.65;;
13959;SDS011;7052;51.050;3.716;2023-08-07T13:05:28;1.67;;;1.58;;
13959;SDS011;7052;51.050;3.716;2023-08-07T13:07:58;2.53;;;1.45;;
13959;SDS011;7052;51.050;3.716;2023-08-07T13:10:26;2.28;;;1.45;;
13959;SDS011;7052;51.050;3.716;2023-08-07T13:13:00;1.85;;;1.50;;
13959;SDS011;7052;51.050;3.716;2023-08-07T13:15:29;2.55;;;1.58;;
13959;SDS011;7052;51.050;3.716;2023-08-07T13:17:56;2.75;;;1.60;;
13959;SDS011;7052;51.050;3.716;2023-08-07T13:20:23;1.98;;;1.48;;
13959;SDS011;7052;51.050;3.716;2023-08-07T13:22:51;1.52;;;1.42;;
13959;SDS011;7052;51.050;3.716;2023-08-07T13:25:19;1.88;;;1.67;;
13959;SDS011;7052;51.050;3.716;2023-08-07T13:27:46;2.92;;;1.73;;
13959;SDS011;7052;51.050;3.716;2023-08-07T13:30:25;2.17;;;1.40;;
13959;SDS011;7052;51.050;3.716;2023-08-07T13:32:58;2.15;;;1.60;;
13959;SDS011;7052;51.050;3.716;2023-08-07T13:35:26;3.00;;;1.80;;
13959;SDS011;7052;51.050;3.716;2023-08-07T13:37:53;1.60;;;1.50;;
13959;SDS011;7052;51.050;3.716;2023-08-07T13:40:20;2.40;;;1.40;;
13959;SDS011;7052;51.050;3.716;2023-08-07T13:42:48;4.40;;;1.77;;
13959;SDS011;7052;51.050;3.716;2023-08-07T13:45:18;1.70;;;1.40;;
13959;SDS011;7052;51.050;3.716;2023-08-07T13:47:45;3.08;;;1.90;;
13959;SDS011;7052;51.050;3.716;2023-08-07T13:50:15;3.97;;;1.90;;
13959;SDS011;7052;51.050;3.716;2023-08-07T13:52:42;2.92;;;1.80;;
13959;SDS011;7052;51.050;3.716;2023-08-07T13:55:12;1.52;;;1.35;;
13959;SDS011;7052;51.050;3.716;2023-08-07T13:57:39;2.05;;;1.73;;
13959;SDS011;7052;51.050;3.716;2023-08-07T14:00:07;1.63;;;1.52;;
13959;SDS011;7052;51.050;3.716;2023-08-07T14:02:41;3.10;;;1.50;;
13959;SDS011;7052;51.050;3.716;2023-08-07T14:05:08;2.70;;;1.63;;
13959;SDS011;7052;51.050;3.716;2023-08-07T14:07:35;1.40;;;1.30;;
13959;SDS011;7052;51.050;3.716;2023-08-07T14:10:03;2.53;;;1.55;;
13959;SDS011;7052;51.050;3.716;2023-08-07T14:12:30;3.03;;;1.55;;
13959;SDS011;7052;51.050;3.716;2023-08-07T14:14:58;1.55;;;1.45;;
13959;SDS011;7052;51.050;3.716;2023-08-07T14:17:24;2.58;;;1.60;;
13959;SDS011;7052;51.050;3.716;2023-08-07T14:19:58;3.33;;;1.80;;
13959;SDS011;7052;51.050;3.716;2023-08-07T14:22:27;1.52;;;1.42;;
13959;SDS011;7052;51.050;3.716;2023-08-07T14:24:58;1.98;;;1.50;;
13959;SDS011;7052;51.050;3.716;2023-08-07T14:27:25;2.58;;;1.70;;
13959;SDS011;7052;51.050;3.716;2023-08-07T14:29:52;4.40;;;1.90;;
13959;SDS011;7052;51.050;3.716;2023-08-07T14:32:20;4.72;;;1.77;;
13959;SDS011;7052;51.050;3.716;2023-08-07T14:34:48;1.75;;;1.63;;
13959;SDS011;7052;51.050;3.716;2023-08-07T14:37:16;3.85;;;2.00;;
13959;SDS011;7052;51.050;3.716;2023-08-07T14:39:47;2.75;;;1.70;;
13959;SDS011;7052;51.050;3.716;2023-08-07T14:42:14;2.00;;;1.70;;
13959;SDS011;7052;51.050;3.716;2023-08-07T14:44:43;2.35;;;2.00;;
13959;SDS011;7052;51.050;3.716;2023-08-07T14:47:10;3.85;;;2.10;;
13959;SDS011;7052;51.050;3.716;2023-08-07T14:49:37;2.42;;;1.90;;
13959;SDS011;7052;51.050;3.716;2023-08-07T14:52:05;2.22;;;2.00;;
13959;SDS011;7052;51.050;3.716;2023-08-07T14:54:36;3.25;;;2.80;;
13959;SDS011;7052;51.050;3.716;2023-08-07T14:57:05;2.53;;;1.90;;
13959;SDS011;7052;51.050;3.716;2023-08-07T14:59:32;1.90;;;1.70;;
13959;SDS011;7052;51.050;3.716;2023-08-07T15:02:00;2.47;;;1.98;;
13959;SDS011;7052;51.050;3.716;2023-08-07T15:04:27;2.83;;;1.77;;
13959;SDS011;7052;51.050;3.716;2023-08-07T15:06:54;3.47;;;1.90;;
13959;SDS011;7052;51.050;3.716;2023-08-07T15:09:24;2.58;;;2.10;;